Time;durP1;ratioP1;P1;durP2;ratioP2;P2;SDS_P1;SDS_P2;PMS_P1;PMS_P2;Temp;Humidity;BMP_temperature;BMP_pressure;BME280_temperature;BME280_humidity;BME280_pressure;Samples;Min_cycle;Max_cycle;Signal;HPM_P1;HPM_P2
2023/12/16 00:01:01;;;;;;;10.97;9.23;;;;;;;2.15;100.00;98830.38;5069919;28;20212;-54
2023/12/16 00:03:29;;;;;;;8.40;7.30;;;;;;;2.13;100.00;98826.94;5070317;28;20313;-55
2023/12/16 00:05:56;;;;;;;10.27;8.03;;;;;;;2.13;100.00;98832.16;5070545;28;20241;-53
2023/12/16 00:08:23;;;;;;;10.80;8.80;;;;;;;2.09;100.00;98822.72;5070773;28;20225;-55
2023/12/16 00:10:50;;;;;;;9.93;8.87;;;;;;;2.10;100.00;98824.41;5070372;28;20222;-53
2023/12/16 00:13:19;;;;;;;12.17;9.57;;;;;;;2.00;100.00;98814.22;5070381;28;20229;-55
2023/12/16 00:15:45;;;;;;;9.70;8.60;;;;;;;1.93;100.00;98814.41;5070221;28;20411;-55
2023/12/16 00:18:12;;;;;;;11.73;9.63;;;;;;;1.96;100.00;98825.63;5070522;28;20236;-54
2023/12/16 00:20:40;;;;;;;10.30;9.00;;;;;;;1.91;100.00;98835.28;5070287;28;20545;-53
2023/12/16 00:23:06;;;;;;;10.67;8.93;;;;;;;1.93;100.00;98841.34;5070480;28;20243;-55
2023/12/16 00:25:33;;;;;;;12.97;8.80;;;;;;;1.94;100.00;98850.91;5070464;28;20313;-55
2023/12/16 00:28:00;;;;;;;9.97;8.33;;;;;;;1.95;100.00;98864.78;5069955;28;20677;-54
2023/12/16 00:30:26;;;;;;;14.83;9.80;;;;;;;2.04;100.00;98885.47;5069858;28;20218;-54
2023/12/16 00:32:53;;;;;;;12.00;9.57;;;;;;;2.05;100.00;98884.56;5070759;28;20216;-54
2023/12/16 00:35:20;;;;;;;11.20;8.67;;;;;;;2.06;100.00;98886.25;5070570;28;20309;-53
2023/12/16 00:37:48;;;;;;;11.60;9.47;;;;;;;2.10;100.00;98887.91;5070302;28;20202;-53
2023/12/16 00:40:16;;;;;;;12.40;9.33;;;;;;;2.23;100.00;98886.72;5072556;28;20211;-54
2023/12/16 00:42:42;;;;;;;9.77;8.77;;;;;;;2.23;100.00;98883.28;5076091;28;20226;-58
2023/12/16 00:45:09;;;;;;;11.67;9.33;;;;;;;2.30;100.00;98875.22;5092146;28;20222;-54
2023/12/16 00:47:37;;;;;;;11.60;8.83;;;;;;;2.32;100.00;98863.00;5092500;28;20222;-54
2023/12/16 00:50:04;;;;;;;11.73;9.53;;;;;;;2.42;100.00;98861.88;5084619;28;20202;-58
2023/12/16 00:52:31;;;;;;;10.83;9.43;;;;;;;2.47;100.00;98849.56;5074831;28;20224;-53
2023/12/16 00:54:59;;;;;;;11.80;9.70;;;;;;;2.48;100.00;98838.22;5074640;28;20207;-54
2023/12/16 00:57:26;;;;;;;12.27;9.63;;;;;;;2.49;100.00;98841.69;5074089;28;20206;-54
2023/12/16 00:59:52;;;;;;;13.00;8.73;;;;;;;2.47;100.00;98841.75;5073868;28;20225;-54
2023/12/16 01:02:19;;;;;;;9.20;8.20;;;;;;;2.50;100.00;98838.19;5073928;28;20207;-54
2023/12/16 01:04:47;;;;;;;9.97;8.93;;;;;;;2.50;100.00;98835.56;5074233;28;20212;-54
2023/12/16 01:07:14;;;;;;;10.57;8.37;;;;;;;2.41;100.00;98833.19;5073662;28;20258;-54
2023/12/16 01:09:40;;;;;;;9.93;8.93;;;;;;;2.37;100.00;98847.25;5073576;28;20195;-53
2023/12/16 01:12:10;;;;;;;10.83;9.73;;;;;;;2.39;100.00;98863.72;5073724;28;20229;-56
2023/12/16 01:14:39;;;;;;;10.97;9.20;;;;;;;2.41;100.00;98856.69;5073261;28;20234;-55
2023/12/16 01:17:06;;;;;;;11.83;9.50;;;;;;;2.37;100.00;98850.69;5072686;28;20655;-53
2023/12/16 01:19:33;;;;;;;12.30;10.00;;;;;;;2.35;100.00;98851.63;5072941;28;20201;-55
2023/12/16 01:21:59;;;;;;;12.63;9.90;;;;;;;2.30;100.00;98853.50;5072856;28;20202;-52
2023/12/16 01:24:26;;;;;;;12.73;9.70;;;;;;;2.34;100.00;98857.72;5073107;28;20281;-54
2023/12/16 01:26:53;;;;;;;12.00;9.87;;;;;;;2.29;100.00;98854.41;5072476;28;20252;-54
2023/12/16 01:29:20;;;;;;;11.47;10.23;;;;;;;2.33;100.00;98856.91;5073381;28;20547;-55
2023/12/16 01:31:47;;;;;;;13.63;9.53;;;;;;;2.36;100.00;98863.78;5073837;28;20360;-55
2023/12/16 01:34:14;;;;;;;13.47;10.47;;;;;;;2.33;100.00;98876.94;5073071;28;20201;-53
2023/12/16 01:36:40;;;;;;;11.50;9.90;;;;;;;2.33;100.00;98869.97;5072989;28;20213;-54
2023/12/16 01:39:08;;;;;;;12.10;10.27;;;;;;;2.36;100.00;98876.84;5072715;28;20293;-54
2023/12/16 01:41:35;;;;;;;12.70;10.33;;;;;;;2.39;100.00;98863.72;5073113;28;20278;-55
2023/12/16 01:44:05;;;;;;;11.60;8.83;;;;;;;2.50;100.00;98825.97;5073987;28;21340;-55
2023/12/16 01:46:35;;;;;;;11.13;10.03;;;;;;;2.42;100.00;98838.38;5073425;28;20280;-55
2023/12/16 01:49:01;;;;;;;11.43;10.33;;;;;;;2.37;100.00;98842.00;5074019;28;20214;-55
2023/12/16 01:51:28;;;;;;;11.60;10.40;;;;;;;2.43;100.00;98844.47;5072544;28;20219;-55
2023/12/16 01:53:55;;;;;;;11.73;9.97;;;;;;;2.53;100.00;98842.47;5073434;28;20643;-55
2023/12/16 01:56:22;;;;;;;11.70;10.00;;;;;;;2.60;100.00;98855.31;5074183;28;20260;-55
2023/12/16 01:58:50;;;;;;;11.73;10.03;;;;;;;2.68;100.00;98871.66;5076907;28;20832;-56
2023/12/16 02:01:17;;;;;;;10.80;9.70;;;;;;;2.68;100.00;98873.41;5072769;28;20619;-56
2023/12/16 02:03:45;;;;;;;12.63;9.97;;;;;;;2.63;100.00;98873.53;5072330;28;20202;-55
2023/12/16 02:06:12;;;;;;;10.40;9.33;;;;;;;2.67;100.00;98879.53;5071394;28;20222;-54
2023/12/16 02:08:39;;;;;;;11.77;10.03;;;;;;;2.61;100.00;98896.22;5071828;28;20198;-54
2023/12/16 02:11:09;;;;;;;11.77;10.23;;;;;;;2.68;100.00;98889.94;5072551;28;20296;-54
2023/12/16 02:13:35;;;;;;;12.10;9.70;;;;;;;2.70;100.00;98890.75;5104350;28;20295;-54
2023/12/16 02:16:02;;;;;;;13.33;10.80;;;;;;;2.71;100.00;98892.47;5071959;28;20218;-54
2023/12/16 02:18:28;;;;;;;11.87;9.93;;;;;;;2.69;100.00;98885.59;5071699;28;20195;-55
2023/12/16 02:20:56;;;;;;;13.23;10.40;;;;;;;2.69;100.00;98878.59;5071781;28;20279;-55
2023/12/16 02:23:25;;;;;;;13.00;10.10;;;;;;;2.74;100.00;98886.31;5072062;28;20209;-55
2023/12/16 02:25:51;;;;;;;14.40;10.87;;;;;;;2.78;100.00;98894.03;5071686;28;20285;-55
2023/12/16 02:28:18;;;;;;;14.07;11.17;;;;;;;2.76;100.00;98901.06;5071485;28;20302;-54
2023/12/16 02:30:44;;;;;;;17.33;11.90;;;;;;;2.69;100.00;98894.28;5071842;28;20293;-55
2023/12/16 02:33:11;;;;;;;15.63;11.63;;;;;;;2.72;100.00;98899.41;5071995;28;20298;-55
2023/12/16 02:35:37;;;;;;;14.93;12.10;;;;;;;2.78;100.00;98894.03;5071555;28;20545;-55
2023/12/16 02:38:04;;;;;;;17.07;12.03;;;;;;;2.77;100.00;98894.91;5071368;28;20199;-53
2023/12/16 02:40:32;;;;;;;19.20;11.50;;;;;;;2.81;100.00;98893.94;5070629;28;20210;-54
2023/12/16 02:42:59;;;;;;;18.13;13.20;;;;;;;2.82;100.00;98900.91;5070832;28;20201;-54
2023/12/16 02:45:25;;;;;;;20.90;12.20;;;;;;;2.84;100.00;98893.00;5071858;28;20574;-54
2023/12/16 02:47:52;;;;;;;20.67;12.63;;;;;;;2.82;100.00;98890.44;5070890;28;20210;-55
2023/12/16 02:50:19;;;;;;;23.87;12.93;;;;;;;2.88;100.00;98898.09;5071043;28;20199;-55
2023/12/16 02:52:46;;;;;;;18.97;12.20;;;;;;;2.84;100.00;98886.00;5070970;28;20327;-55
2023/12/16 02:55:12;;;;;;;25.07;11.23;;;;;;;2.87;100.00;98899.00;5071191;28;20206;-54
2023/12/16 02:57:40;;;;;;;58.57;13.53;;;;;;;2.78;100.00;98894.03;5071272;28;20614;-53
2023/12/16 03:00:08;;;;;;;30.97;12.60;;;;;;;2.86;100.00;98897.31;5073721;28;20638;-54
2023/12/16 03:02:34;;;;;;;37.60;12.97;;;;;;;2.95;100.00;98890.97;5081679;28;20205;-55
2023/12/16 03:05:01;;;;;;;28.60;11.90;;;;;;;2.96;100.00;98893.53;5090966;28;20274;-56
2023/12/16 03:07:28;;;;;;;43.43;13.20;;;;;;;2.92;100.00;98897.13;5093095;28;20206;-54
2023/12/16 03:09:55;;;;;;;43.63;13.10;;;;;;;2.91;100.00;98889.31;5092229;28;20237;-53
2023/12/16 03:12:22;;;;;;;30.93;12.13;;;;;;;2.90;100.00;98883.25;5097498;28;20207;-53
2023/12/16 03:14:49;;;;;;;34.60;12.50;;;;;;;2.89;100.00;98878.06;5095499;28;20210;-54
2023/12/16 03:17:16;;;;;;;24.73;11.20;;;;;;;2.91;100.00;98887.56;5094147;28;20209;-55
2023/12/16 03:19:43;;;;;;;49.73;12.47;;;;;;;2.78;100.00;98886.19;5073738;28;20596;-55
2023/12/16 03:22:09;;;;;;;22.13;11.73;;;;;;;2.81;100.00;98882.63;5073027;28;20202;-54
2023/12/16 03:24:36;;;;;;;19.40;11.73;;;;;;;2.89;100.00;98881.53;5072228;28;20661;-54
2023/12/16 03:27:02;;;;;;;25.50;11.30;;;;;;;2.82;100.00;98890.44;5070632;28;20293;-54
2023/12/16 03:29:29;;;;;;;17.90;11.73;;;;;;;2.78;100.00;98895.78;5072698;28;20202;-53
2023/12/16 03:31:57;;;;;;;40.27;12.00;;;;;;;2.71;100.00;98905.53;5072868;28;20226;-54
2023/12/16 03:34:24;;;;;;;36.57;12.80;;;;;;;2.63;100.00;98915.31;5072448;28;20194;-54
2023/12/16 03:36:51;;;;;;;24.60;11.77;;;;;;;2.68;100.00;98928.28;5071306;28;20208;-55
2023/12/16 03:39:18;;;;;;;28.70;11.50;;;;;;;2.79;100.00;98924.50;5071437;28;20207;-54
2023/12/16 03:41:44;;;;;;;19.87;11.30;;;;;;;2.64;100.00;98911.81;5071127;28;20222;-54
2023/12/16 03:44:12;;;;;;;44.43;12.03;;;;;;;2.64;100.00;98914.44;5070931;28;20293;-54
2023/12/16 03:46:39;;;;;;;21.47;10.87;;;;;;;2.61;100.00;98916.25;5070656;28;20293;-54
2023/12/16 03:49:07;;;;;;;28.23;11.00;;;;;;;2.64;100.00;98927.50;5070804;28;20293;-54
2023/12/16 03:51:33;;;;;;;26.80;12.10;;;;;;;2.59;100.00;98937.19;5070350;28;20218;-53
2023/12/16 03:54:00;;;;;;;16.67;10.17;;;;;;;2.71;100.00;98934.28;5071035;28;20341;-55
2023/12/16 03:56:27;;;;;;;20.77;11.20;;;;;;;2.75;100.00;98924.59;5070832;28;20221;-55
2023/12/16 03:58:53;;;;;;;28.70;11.13;;;;;;;2.72;100.00;98930.78;5070411;28;20202;-55
2023/12/16 04:01:20;;;;;;;29.53;11.20;;;;;;;2.71;100.00;98934.28;5070549;28;20207;-54
2023/12/16 04:03:46;;;;;;;26.67;11.83;;;;;;;2.76;100.00;98931.56;5073448;28;20207;-54
2023/12/16 04:06:15;;;;;;;22.00;11.20;;;;;;;2.79;100.00;98948.00;5072872;28;20195;-54
2023/12/16 04:08:42;;;;;;;21.57;11.50;;;;;;;2.78;100.00;98946.28;5071025;28;20289;-53
2023/12/16 04:11:10;;;;;;;28.23;10.60;;;;;;;2.78;100.00;98933.22;5071397;28;20326;-53
2023/12/16 04:13:37;;;;;;;18.63;11.27;;;;;;;2.79;100.00;98940.16;5070296;28;20230;-53
2023/12/16 04:16:05;;;;;;;33.23;11.80;;;;;;;2.64;100.00;98943.16;5073732;28;20639;-55
2023/12/16 04:18:32;;;;;;;15.27;11.27;;;;;;;2.75;100.00;98941.16;5075146;28;20203;-54
2023/12/16 04:20:59;;;;;;;21.63;12.87;;;;;;;2.82;100.00;98942.69;5074401;28;20623;-54
2023/12/16 04:23:27;;;;;;;23.93;12.87;;;;;;;2.78;100.00;98946.28;5074396;28;20604;-54
2023/12/16 04:25:53;;;;;;;21.67;13.23;;;;;;;2.79;100.00;98936.69;5074366;28;20571;-53
2023/12/16 04:28:20;;;;;;;23.60;11.77;;;;;;;2.72;100.00;98933.38;5074303;28;20202;-53
2023/12/16 04:30:46;;;;;;;16.53;10.97;;;;;;;2.78;100.00;98934.97;5074466;28;20550;-54
2023/12/16 04:33:13;;;;;;;23.17;12.63;;;;;;;2.75;100.00;98929.84;5074041;28;20675;-54
2023/12/16 04:35:40;;;;;;;17.77;12.13;;;;;;;2.79;100.00;98927.09;5074431;28;20202;-55
2023/12/16 04:38:06;;;;;;;20.43;12.50;;;;;;;2.76;100.00;98931.56;5074078;28;20199;-54
2023/12/16 04:40:34;;;;;;;19.20;12.20;;;;;;;2.76;100.00;98937.66;5074614;28;20210;-53
2023/12/16 04:43:01;;;;;;;23.60;12.80;;;;;;;2.75;100.00;98940.28;5074122;28;20207;-54
2023/12/16 04:45:27;;;;;;;16.43;10.60;;;;;;;2.69;100.00;98941.31;5076152;28;20210;-53
2023/12/16 04:47:54;;;;;;;21.47;10.83;;;;;;;2.71;100.00;98941.25;5074412;28;20282;-54
2023/12/16 04:50:20;;;;;;;17.50;10.40;;;;;;;2.60;100.00;98940.66;5073316;28;20207;-55
2023/12/16 04:52:47;;;;;;;13.97;10.07;;;;;;;2.59;100.00;98928.50;5073434;28;20304;-54
2023/12/16 04:55:14;;;;;;;32.27;10.83;;;;;;;2.46;100.00;98927.94;5074332;28;20199;-53
2023/12/16 04:57:42;;;;;;;18.40;10.23;;;;;;;2.35;100.00;98924.72;5072873;28;20241;-53
2023/12/16 05:00:10;;;;;;;12.20;9.50;;;;;;;2.32;100.00;98928.28;5073568;28;20195;-55
2023/12/16 05:02:37;;;;;;;17.87;10.47;;;;;;;2.29;100.00;98924.88;5073935;28;20226;-53
2023/12/16 05:05:04;;;;;;;13.80;10.27;;;;;;;2.38;100.00;98924.66;5073925;28;20207;-55
2023/12/16 05:07:30;;;;;;;14.37;10.63;;;;;;;2.48;100.00;98936.59;5086928;28;20208;-54
2023/12/16 05:09:57;;;;;;;14.20;9.53;;;;;;;2.51;100.00;98926.91;5093535;28;20230;-55
2023/12/16 05:12:23;;;;;;;17.23;10.93;;;;;;;2.53;100.00;98929.50;5088908;28;20604;-54
2023/12/16 05:14:51;;;;;;;16.10;9.97;;;;;;;2.50;100.00;98925.22;5076603;28;20280;-54
2023/12/16 05:17:19;;;;;;;17.23;10.50;;;;;;;2.47;100.00;98927.91;5078146;28;20273;-55
2023/12/16 05:19:46;;;;;;;16.40;11.17;;;;;;;2.43;100.00;98928.03;5087732;28;20212;-55
2023/12/16 05:22:12;;;;;;;13.07;10.70;;;;;;;2.42;100.00;98928.91;5092278;28;20198;-54
2023/12/16 05:24:39;;;;;;;15.37;9.73;;;;;;;2.51;100.00;98921.69;5081520;28;20279;-54
2023/12/16 05:27:07;;;;;;;11.57;9.80;;;;;;;2.50;100.00;98921.75;5072709;28;20194;-54
2023/12/16 05:29:33;;;;;;;11.60;10.40;;;;;;;2.53;100.00;98924.28;5073753;28;20663;-54
2023/12/16 05:32:01;;;;;;;9.97;8.87;;;;;;;2.46;100.00;98917.50;5073334;28;20214;-54
2023/12/16 05:34:28;;;;;;;18.63;9.37;;;;;;;2.47;100.00;98927.06;5073769;28;20206;-54
2023/12/16 05:36:54;;;;;;;24.77;10.03;;;;;;;2.45;100.00;98937.53;5073041;28;20208;-53
2023/12/16 05:39:21;;;;;;;19.93;9.30;;;;;;;2.47;100.00;98929.66;5073768;28;20218;-55
2023/12/16 05:41:49;;;;;;;12.30;9.10;;;;;;;2.33;100.00;98939.59;5073122;28;20287;-55
2023/12/16 05:44:17;;;;;;;30.83;8.97;;;;;;;2.30;100.00;98945.72;5072802;28;20300;-53
2023/12/16 05:46:44;;;;;;;20.80;9.80;;;;;;;2.35;100.00;98948.22;5073255;28;20508;-54
2023/12/16 05:49:12;;;;;;;24.60;10.83;;;;;;;2.33;100.00;98948.28;5071585;28;20595;-53
2023/12/16 05:51:39;;;;;;;16.07;9.23;;;;;;;2.39;100.00;98952.50;5072425;28;21448;-54
2023/12/16 05:54:07;;;;;;;19.27;8.83;;;;;;;2.34;100.00;98949.13;5072602;28;20248;-55
2023/12/16 05:56:34;;;;;;;9.70;8.63;;;;;;;2.40;100.00;98954.22;5072819;28;20214;-54
2023/12/16 05:59:00;;;;;;;23.97;10.50;;;;;;;2.35;100.00;98945.63;5072326;28;20207;-54
2023/12/16 06:01:27;;;;;;;17.20;9.30;;;;;;;2.41;100.00;98950.69;5072734;28;20199;-54
2023/12/16 06:03:53;;;;;;;14.00;10.03;;;;;;;2.44;100.00;98945.41;5072673;28;20195;-55
2023/12/16 06:06:21;;;;;;;17.47;9.87;;;;;;;2.49;100.00;98951.38;5072305;28;20209;-55
2023/12/16 06:08:48;;;;;;;10.77;9.33;;;;;;;2.43;100.00;98948.91;5071918;28;20301;-53
2023/12/16 06:11:15;;;;;;;13.37;10.00;;;;;;;2.37;100.00;98951.69;5072066;28;20203;-53
2023/12/16 06:13:41;;;;;;;12.53;9.17;;;;;;;2.31;100.00;98943.97;5071502;28;20328;-54
2023/12/16 06:16:08;;;;;;;17.07;9.70;;;;;;;2.23;100.00;98940.72;5071726;28;20705;-54
2023/12/16 06:18:35;;;;;;;15.07;9.80;;;;;;;2.23;100.00;98936.31;5071526;28;20202;-54
2023/12/16 06:21:01;;;;;;;10.27;9.00;;;;;;;2.20;100.00;98945.97;5071666;28;20206;-55
2023/12/16 06:23:31;;;;;;;15.67;9.23;;;;;;;2.22;100.00;98945.06;5071166;28;20207;-54
2023/12/16 06:25:57;;;;;;;10.60;8.87;;;;;;;2.19;100.00;98939.06;5071914;28;20205;-53
2023/12/16 06:28:24;;;;;;;15.40;10.13;;;;;;;2.10;100.00;98945.34;5071375;28;20198;-53
2023/12/16 06:30:50;;;;;;;18.20;10.23;;;;;;;2.08;100.00;98943.66;5071776;28;20214;-54
2023/12/16 06:33:17;;;;;;;15.83;10.20;;;;;;;2.11;100.00;98941.84;5071967;28;20225;-54
2023/12/16 06:35:44;;;;;;;14.53;10.27;;;;;;;2.21;100.00;98947.69;5072019;28;20301;-55
2023/12/16 06:38:11;;;;;;;14.70;10.20;;;;;;;2.27;100.00;98937.97;5071227;28;20199;-55
2023/12/16 06:40:39;;;;;;;15.43;10.33;;;;;;;2.25;100.00;98939.78;5072403;28;20214;-55
2023/12/16 06:43:05;;;;;;;14.63;10.63;;;;;;;2.31;100.00;98941.38;5071098;28;20297;-55
2023/12/16 06:45:32;;;;;;;23.40;11.17;;;;;;;2.22;100.00;98938.97;5071411;28;20293;-53
2023/12/16 06:47:59;;;;;;;23.90;10.67;;;;;;;2.12;100.00;98937.47;5071549;28;20202;-55
2023/12/16 06:50:25;;;;;;;17.60;10.30;;;;;;;2.11;100.00;98939.22;5072543;28;20202;-52
2023/12/16 06:52:52;;;;;;;15.20;10.20;;;;;;;2.12;100.00;98937.47;5070986;28;20317;-54
2023/12/16 06:55:19;;;;;;;11.80;10.07;;;;;;;2.09;100.00;98943.59;5072380;28;20206;-55
2023/12/16 06:57:47;;;;;;;15.63;9.50;;;;;;;2.02;100.00;98943.81;5070835;28;20263;-55
2023/12/16 07:00:14;;;;;;;33.13;11.50;;;;;;;2.00;100.00;98944.69;5071368;28;20238;-54
2023/12/16 07:02:42;;;;;;;10.93;9.03;;;;;;;2.00;100.00;98939.47;5070694;28;20213;-53
2023/12/16 07:05:10;;;;;;;26.43;10.47;;;;;;;1.94;100.00;98938.75;5071893;28;20274;-55
2023/12/16 07:07:36;;;;;;;16.40;10.40;;;;;;;1.89;100.00;98944.06;5071333;28;20327;-56
2023/12/16 07:10:05;;;;;;;11.87;10.10;;;;;;;1.88;100.00;98950.16;5070882;28;20205;-55
2023/12/16 07:12:31;;;;;;;16.40;10.50;;;;;;;1.84;100.00;98948.50;5070599;28;20223;-53
2023/12/16 07:14:59;;;;;;;29.43;10.40;;;;;;;1.82;100.00;98963.34;5071260;28;20230;-55
2023/12/16 07:17:26;;;;;;;25.20;10.47;;;;;;;1.81;100.00;98959.03;5070802;28;20619;-55
2023/12/16 07:19:53;;;;;;;49.80;12.07;;;;;;;1.76;100.00;98963.50;5071286;28;20213;-55
2023/12/16 07:22:19;;;;;;;11.87;9.40;;;;;;;1.87;100.00;98971.09;5070267;28;20199;-54
2023/12/16 07:24:46;;;;;;;11.33;9.77;;;;;;;1.99;100.00;98969.06;5071323;28;20281;-55
2023/12/16 07:27:12;;;;;;;15.53;9.57;;;;;;;2.05;100.00;98968.09;5071307;28;20205;-55
2023/12/16 07:29:39;;;;;;;26.63;11.13;;;;;;;2.04;100.00;98975.94;5070913;28;20190;-53
2023/12/16 07:32:08;;;;;;;16.73;11.27;;;;;;;2.03;100.00;98984.66;5071010;28;20210;-54
2023/12/16 07:34:34;;;;;;;12.30;10.17;;;;;;;2.05;100.00;98977.66;5072028;28;20374;-54
2023/12/16 07:37:01;;;;;;;18.57;11.17;;;;;;;2.03;100.00;98974.22;5086356;28;20219;-55
2023/12/16 07:39:27;;;;;;;14.43;10.87;;;;;;;2.12;100.00;98974.03;5089954;28;20257;-55
2023/12/16 07:41:54;;;;;;;17.70;10.93;;;;;;;2.09;100.00;98972.31;5085746;28;20206;-53
2023/12/16 07:44:20;;;;;;;19.77;11.33;;;;;;;2.06;100.00;98974.13;5072827;28;20209;-54
2023/12/16 07:46:47;;;;;;;19.87;11.23;;;;;;;1.95;100.00;98972.63;5072051;28;20297;-53
2023/12/16 07:49:19;;;;;;;21.83;11.63;;;;;;;2.08;100.00;98980.19;5072387;28;20338;-54
2023/12/16 07:51:46;;;;;;;17.13;11.07;;;;;;;2.10;100.00;98975.78;5076798;28;20276;-55
2023/12/16 07:54:14;;;;;;;19.70;12.13;;;;;;;2.10;100.00;98973.19;5075583;28;20293;-54
2023/12/16 07:56:41;;;;;;;23.10;11.20;;;;;;;2.10;100.00;98975.78;5075332;28;20260;-53
2023/12/16 07:59:08;;;;;;;18.70;11.27;;;;;;;2.04;100.00;98976.81;5074542;28;20214;-53
2023/12/16 08:01:34;;;;;;;18.53;11.70;;;;;;;1.97;100.00;98978.69;5075553;28;20205;-54
2023/12/16 08:04:01;;;;;;;14.17;10.87;;;;;;;2.03;100.00;98985.50;5075514;28;20199;-54
2023/12/16 08:06:29;;;;;;;23.30;11.70;;;;;;;2.02;100.00;98989.00;5075034;28;20206;-53
2023/12/16 08:08:58;;;;;;;14.40;11.20;;;;;;;1.96;100.00;98990.00;5075273;28;20213;-53
2023/12/16 08:11:24;;;;;;;20.43;11.47;;;;;;;1.96;100.00;98986.53;5074075;28;20213;-54
2023/12/16 08:13:51;;;;;;;14.47;11.13;;;;;;;1.95;100.00;98992.63;5073417;28;20285;-54
2023/12/16 08:16:17;;;;;;;20.60;11.83;;;;;;;2.00;100.00;98986.44;5074686;28;20665;-54
2023/12/16 08:18:44;;;;;;;16.40;11.63;;;;;;;1.91;100.00;98985.78;5074443;28;20210;-53
2023/12/16 08:21:11;;;;;;;13.97;11.53;;;;;;;2.06;100.00;98979.34;5082005;28;20294;-53
2023/12/16 08:23:39;;;;;;;16.23;12.03;;;;;;;2.01;100.00;98987.31;5082008;28;20270;-55
2023/12/16 08:26:10;;;;;;;25.43;12.17;;;;;;;1.98;100.00;98982.16;5078492;28;20213;-54
2023/12/16 08:28:36;;;;;;;15.77;11.90;;;;;;;1.99;100.00;98984.72;5075055;28;20213;-52
2023/12/16 08:31:03;;;;;;;18.87;12.97;;;;;;;2.03;100.00;98988.13;5074890;28;20202;-54
2023/12/16 08:33:30;;;;;;;18.47;12.60;;;;;;;2.05;100.00;98978.53;5074029;28;20254;-55
2023/12/16 08:35:57;;;;;;;16.83;11.80;;;;;;;2.04;100.00;98986.38;5073605;28;20210;-55
2023/12/16 08:38:24;;;;;;;18.13;12.40;;;;;;;2.03;100.00;98985.50;5073191;28;20206;-55
2023/12/16 08:40:53;;;;;;;16.03;12.43;;;;;;;2.05;100.00;98982.88;5073620;28;20198;-55
2023/12/16 08:43:19;;;;;;;17.90;12.77;;;;;;;2.05;100.00;98988.97;5073439;28;20214;-56
2023/12/16 08:45:46;;;;;;;17.07;12.03;;;;;;;2.02;100.00;98993.41;5073929;28;20298;-54
2023/12/16 08:48:13;;;;;;;18.63;12.33;;;;;;;1.98;100.00;98996.03;5074111;28;20297;-55
2023/12/16 08:50:40;;;;;;;17.33;11.83;;;;;;;1.92;100.00;99001.41;5073588;28;20694;-55
2023/12/16 08:53:08;;;;;;;15.80;12.23;;;;;;;2.00;100.00;99004.72;5072908;28;20248;-55
2023/12/16 08:55:35;;;;;;;16.67;12.27;;;;;;;1.98;100.00;99008.25;5073595;28;20203;-55
2023/12/16 08:58:03;;;;;;;17.97;11.63;;;;;;;1.92;100.00;99006.63;5073764;28;20305;-55
2023/12/16 09:00:29;;;;;;;15.77;12.20;;;;;;;1.96;100.00;99013.50;5073027;28;20203;-55
2023/12/16 09:02:56;;;;;;;13.93;11.77;;;;;;;2.05;100.00;99011.59;5072601;28;20592;-55
2023/12/16 09:05:24;;;;;;;15.27;12.03;;;;;;;2.04;100.00;99018.56;5073296;28;20651;-54
2023/12/16 09:07:51;;;;;;;16.30;11.67;;;;;;;2.13;100.00;99025.31;5074618;28;20198;-54
2023/12/16 09:10:17;;;;;;;15.93;11.73;;;;;;;2.12;100.00;99028.84;5076514;28;20202;-55
2023/12/16 09:12:44;;;;;;;14.77;12.50;;;;;;;2.09;100.00;99026.28;5075639;28;20203;-55
2023/12/16 09:15:12;;;;;;;15.77;12.40;;;;;;;2.15;100.00;99031.38;5075195;28;20234;-55
2023/12/16 09:17:39;;;;;;;14.70;11.90;;;;;;;2.20;100.00;99042.56;5076409;28;20202;-55
2023/12/16 09:20:07;;;;;;;13.10;11.50;;;;;;;2.11;100.00;99050.59;5074368;28;20204;-55
2023/12/16 09:22:33;;;;;;;15.17;13.13;;;;;;;1.93;100.00;99046.63;5073471;28;20203;-54
2023/12/16 09:25:01;;;;;;;15.93;12.87;;;;;;;2.09;100.00;99052.41;5074123;28;20530;-55
2023/12/16 09:27:27;;;;;;;17.60;13.13;;;;;;;2.04;100.00;99051.63;5073531;28;20210;-54
2023/12/16 09:29:54;;;;;;;17.63;12.83;;;;;;;2.00;100.00;99056.91;5072737;28;20213;-55
2023/12/16 09:32:22;;;;;;;16.60;13.07;;;;;;;1.93;100.00;99052.72;5073502;28;20221;-55
2023/12/16 09:34:48;;;;;;;13.57;11.80;;;;;;;2.09;100.00;99057.63;5072968;28;20237;-55
2023/12/16 09:37:15;;;;;;;12.13;10.90;;;;;;;2.27;100.00;99062.41;5074203;28;20210;-52
2023/12/16 09:39:42;;;;;;;12.00;10.70;;;;;;;2.33;100.00;99059.69;5073615;28;20194;-53
2023/12/16 09:42:13;;;;;;;12.53;11.20;;;;;;;2.41;100.00;99060.38;5074169;28;20216;-59
2023/12/16 09:44:42;;;;;;;13.80;11.53;;;;;;;2.46;100.00;99054.16;5073709;28;20257;-53
2023/12/16 09:47:11;;;;;;;15.57;12.50;;;;;;;2.60;100.00;99053.84;5074212;28;20248;-53
2023/12/16 09:49:40;;;;;;;16.07;12.60;;;;;;;2.65;100.00;99065.06;5072736;28;20198;-55
2023/12/16 09:52:07;;;;;;;18.27;12.93;;;;;;;2.76;100.00;99057.84;5074124;28;20396;-54
2023/12/16 09:54:34;;;;;;;17.37;13.77;;;;;;;2.76;100.00;99055.22;5079190;28;20223;-55
2023/12/16 09:57:01;;;;;;;19.77;13.47;;;;;;;2.83;100.00;99059.41;5080581;28;20202;-54
2023/12/16 09:59:28;;;;;;;21.40;14.57;;;;;;;2.73;100.00;99060.50;5078129;28;20210;-55
2023/12/16 10:01:59;;;;;;;19.33;14.00;;;;;;;2.73;100.00;99057.88;5073684;28;20224;-55
2023/12/16 10:04:27;;;;;;;23.10;16.00;;;;;;;2.59;100.00;99048.69;5073182;28;20259;-53
2023/12/16 10:06:55;;;;;;;18.53;14.33;;;;;;;2.49;100.00;99045.38;5072637;28;20206;-54
2023/12/16 10:09:21;;;;;;;19.33;14.07;;;;;;;2.51;100.00;99049.69;5072841;28;20210;-54
2023/12/16 10:11:51;;;;;;;19.53;14.07;;;;;;;2.63;100.00;99040.72;5071854;28;20678;-54
2023/12/16 10:14:18;;;;;;;16.47;13.03;;;;;;;2.74;100.00;99049.16;5073086;28;20635;-55
2023/12/16 10:16:47;;;;;;;17.37;13.13;;;;;;;2.74;100.00;99046.53;5073288;28;20198;-54
2023/12/16 10:19:13;;;;;;;19.50;13.07;;;;;;;2.78;100.00;99044.72;5073810;28;20221;-56
2023/12/16 10:21:41;;;;;;;20.40;14.50;;;;;;;2.86;100.00;99046.25;5071771;28;20514;-54
2023/12/16 10:24:09;;;;;;;21.27;14.87;;;;;;;2.83;100.00;99048.94;5071837;28;20198;-56
2023/12/16 10:26:41;;;;;;;19.27;14.17;;;;;;;2.88;100.00;99047.06;5072028;28;20194;-54
2023/12/16 10:29:09;;;;;;;18.17;13.80;;;;;;;2.91;100.00;99046.13;5071341;28;20199;-54
2023/12/16 10:31:36;;;;;;;19.00;13.37;;;;;;;2.94;100.00;99046.91;5072477;28;20199;-54
2023/12/16 10:34:03;;;;;;;18.50;13.57;;;;;;;2.94;100.00;99051.31;5071892;28;20230;-55
2023/12/16 10:36:30;;;;;;;16.43;12.43;;;;;;;2.94;100.00;99046.06;5071433;28;20297;-55
2023/12/16 10:38:56;;;;;;;16.80;12.33;;;;;;;3.00;100.00;99041.56;5072396;28;20205;-54
2023/12/16 10:41:25;;;;;;;14.87;12.47;;;;;;;2.97;100.00;99041.63;5074374;28;20198;-55
2023/12/16 10:43:52;;;;;;;16.63;12.90;;;;;;;3.06;100.00;99037.06;5072283;28;20299;-54
2023/12/16 10:46:19;;;;;;;16.37;12.00;;;;;;;3.05;100.00;99032.75;5070584;28;20211;-53
2023/12/16 10:48:47;;;;;;;14.80;12.60;;;;;;;3.04;100.00;99031.03;5071446;28;20205;-54
2023/12/16 10:51:15;;;;;;;15.63;12.70;;;;;;;3.05;100.00;99030.13;5071584;28;20332;-55
2023/12/16 10:53:46;;;;;;;15.77;12.83;;;;;;;3.01;100.00;99027.56;5071782;28;20218;-53
2023/12/16 10:56:17;;;;;;;16.57;12.33;;;;;;;2.96;100.00;99029.44;5070882;28;20215;-54
2023/12/16 10:58:49;;;;;;;14.90;12.00;;;;;;;3.06;100.00;99026.59;5070897;28;20202;-55
2023/12/16 11:01:18;;;;;;;15.13;12.73;;;;;;;3.03;100.00;99024.06;5071625;28;20195;-55
2023/12/16 11:03:48;;;;;;;15.80;12.80;;;;;;;3.00;100.00;99031.09;5071686;28;20190;-63
2023/12/16 11:06:18;;;;;;;17.23;12.83;;;;;;;2.99;100.00;99029.38;5072191;28;20205;-54
2023/12/16 11:08:45;;;;;;;18.27;13.53;;;;;;;3.03;100.00;99026.69;5071643;28;20210;-55
2023/12/16 11:11:12;;;;;;;17.60;13.70;;;;;;;2.89;100.00;99025.28;5074195;28;20739;-53
2023/12/16 11:13:39;;;;;;;20.03;14.30;;;;;;;2.91;100.00;99015.63;5079083;28;20313;-52
2023/12/16 11:16:13;;;;;;;17.10;13.07;;;;;;;3.05;100.00;99012.66;5073250;28;20245;-54
2023/12/16 11:18:41;;;;;;;18.83;14.00;;;;;;;3.09;100.00;99018.66;5075770;28;20289;-53